Time;durP1;ratioP1;P1;durP2;ratioP2;P2;SDS_P1;SDS_P2;PMS_P1;PMS_P2;Temp;Humidity;BMP_temperature;BMP_pressure;BME280_temperature;BME280_humidity;BME280_pressure;Samples;Min_cycle;Max_cycle;Signal;HPM_P1;HPM_P2
2022/01/22 00:00:56;;;;;;;3.88;2.75;;;;;;;;;;4836088;29;20058;-82
2022/01/22 00:03:24;;;;;;;5.82;2.42;;;;;;;;;;4835675;29;20068;-83
2022/01/22 00:05:52;;;;;;;4.55;2.83;;;;;;;;;;4836434;29;20049;-83
2022/01/22 00:08:21;;;;;;;2.40;2.30;;;;;;;;;;4832540;29;20058;-83
2022/01/22 00:10:51;;;;;;;9.15;3.55;;;;;;;;;;4817282;29;20054;-82
2022/01/22 00:15:51;;;;;;;2.65;2.45;;;;;;;;;;4831122;29;20058;-84
2022/01/22 00:18:19;;;;;;;5.43;3.15;;;;;;;;;;4817593;29;20060;-83
2022/01/22 00:20:47;;;;;;;1.83;1.65;;;;;;;;;;4817268;29;20058;-83
2022/01/22 00:23:16;;;;;;;5.97;2.08;;;;;;;;;;4815644;29;20841;-83
2022/01/22 00:25:44;;;;;;;3.42;3.15;;;;;;;;;;4831049;29;20081;-83
2022/01/22 00:28:12;;;;;;;6.38;3.17;;;;;;;;;;4816215;29;20061;-84
2022/01/22 00:30:44;;;;;;;5.47;2.53;;;;;;;;;;4817708;29;20058;-85
2022/01/22 00:33:16;;;;;;;2.47;2.28;;;;;;;;;;4817035;29;20420;-83
2022/01/22 00:35:44;;;;;;;3.20;3.00;;;;;;;;;;4816923;29;20809;-84
2022/01/22 00:38:14;;;;;;;4.95;3.20;;;;;;;;;;4816964;29;20062;-84
2022/01/22 00:40:49;;;;;;;3.17;2.88;;;;;;;;;;4817046;29;20062;-83
2022/01/22 00:43:19;;;;;;;2.25;2.05;;;;;;;;;;4834394;29;20050;-84
2022/01/22 00:45:48;;;;;;;2.70;2.47;;;;;;;;;;4835532;29;20605;-83
2022/01/22 00:48:17;;;;;;;6.90;2.85;;;;;;;;;;4834345;29;20058;-84
2022/01/22 00:50:45;;;;;;;3.85;3.28;;;;;;;;;;4817284;29;20073;-84
2022/01/22 00:53:13;;;;;;;3.35;2.13;;;;;;;;;;4816503;29;20061;-84
2022/01/22 00:55:41;;;;;;;3.88;2.50;;;;;;;;;;4819121;29;20493;-83
2022/01/22 00:58:09;;;;;;;2.55;2.38;;;;;;;;;;4846676;29;20053;-83
2022/01/22 01:00:37;;;;;;;3.38;3.08;;;;;;;;;;4815136;29;20054;-85
2022/01/22 01:03:06;;;;;;;4.75;2.95;;;;;;;;;;4816834;29;20061;-82
2022/01/22 01:05:35;;;;;;;8.85;3.85;;;;;;;;;;4816051;29;20062;-84
2022/01/22 01:08:04;;;;;;;4.40;2.72;;;;;;;;;;4829698;29;20050;-83
2022/01/22 01:10:33;;;;;;;11.25;3.85;;;;;;;;;;4815394;29;20081;-83
2022/01/22 01:13:00;;;;;;;4.97;3.40;;;;;;;;;;4829366;29;20516;-83
2022/01/22 01:15:40;;;;;;;2.80;2.60;;;;;;;;;;4829846;29;20073;-84
2022/01/22 01:34:41;;;;;;;5.68;3.90;;;;;;;;;;4799676;29;20058;-85
2022/01/22 01:37:13;;;;;;;4.07;2.47;;;;;;;;;;4813878;29;20121;-83
2022/01/22 01:39:43;;;;;;;5.57;3.42;;;;;;;;;;4811056;29;20504;-83
2022/01/22 01:42:16;;;;;;;3.22;2.50;;;;;;;;;;4798523;29;20046;-82
2022/01/22 01:44:45;;;;;;;2.42;2.28;;;;;;;;;;4828328;29;20061;-83
2022/01/22 01:47:17;;;;;;;4.35;3.38;;;;;;;;;;4834595;29;20054;-83
2022/01/22 01:49:46;;;;;;;4.28;3.95;;;;;;;;;;4832982;29;20058;-83
2022/01/22 01:52:44;;;;;;;;;;;;;;;;;;4832713;29;20054;-83
2022/01/22 01:55:34;;;;;;;5.60;3.63;;;;;;;;;;4847926;29;20666;-83
2022/01/22 01:58:11;;;;;;;3.50;3.28;;;;;;;;;;4847851;29;20046;-83
2022/01/22 02:00:42;;;;;;;3.47;3.25;;;;;;;;;;4832770;29;20053;-84
2022/01/22 02:03:12;;;;;;;2.70;2.50;;;;;;;;;;4832613;29;20104;-83
2022/01/22 02:05:44;;;;;;;7.13;3.13;;;;;;;;;;4834584;29;20064;-84
2022/01/22 02:08:13;;;;;;;5.35;3.50;;;;;;;;;;4832316;29;20057;-83
2022/01/22 02:10:57;;;;;;;2.97;2.78;;;;;;;;;;4809143;29;20073;-82
2022/01/22 02:14:01;;;;;;;1.85;1.75;;;;;;;;;;4809889;29;20697;-82
2022/01/22 02:25:14;;;;;;;4.80;2.50;;;;;;;;;;4811551;29;20055;-83
2022/01/22 02:27:42;;;;;;;2.75;2.65;;;;;;;;;;4795247;29;20066;-83
2022/01/22 02:30:22;;;;;;;2.20;2.03;;;;;;;;;;4796797;29;20066;-84
2022/01/22 02:33:27;;;;;;;3.53;2.88;;;;;;;;;;4797961;29;20067;-83
2022/01/22 02:36:02;;;;;;;3.60;2.85;;;;;;;;;;4811806;29;20054;-84
2022/01/22 02:38:39;;;;;;;2.60;2.40;;;;;;;;;;4811796;29;20080;-83
2022/01/22 02:41:13;;;;;;;2.90;2.70;;;;;;;;;;4797851;29;20051;-83
2022/01/22 02:43:41;;;;;;;2.75;2.25;;;;;;;;;;4812155;29;20054;-83
2022/01/22 02:46:14;;;;;;;9.23;3.20;;;;;;;;;;4834292;29;20054;-83
2022/01/22 02:48:42;;;;;;;6.38;2.30;;;;;;;;;;4834810;29;20919;-83
2022/01/22 02:51:10;;;;;;;12.93;2.35;;;;;;;;;;4817400;29;20058;-83
2022/01/22 02:53:38;;;;;;;2.58;2.33;;;;;;;;;;4817962;29;20069;-81
2022/01/22 02:56:07;;;;;;;2.35;2.03;;;;;;;;;;4820254;29;20516;-80
2022/01/22 02:58:36;;;;;;;2.35;2.25;;;;;;;;;;4823083;29;20501;-81
2022/01/22 03:01:04;;;;;;;2.47;2.28;;;;;;;;;;4835633;29;20050;-81
2022/01/22 03:03:33;;;;;;;2.65;2.40;;;;;;;;;;4835327;29;20446;-81
2022/01/22 03:06:02;;;;;;;6.10;2.00;;;;;;;;;;4835621;29;20057;-82
2022/01/22 03:08:32;;;;;;;3.40;2.72;;;;;;;;;;4836785;29;20054;-81
2022/01/22 03:11:04;;;;;;;5.75;2.17;;;;;;;;;;4821352;29;20066;-83
2022/01/22 03:16:33;;;;;;;10.80;3.70;;;;;;;;;;4835423;29;20057;-82
2022/01/22 03:19:10;;;;;;;10.63;3.45;;;;;;;;;;4836397;29;20089;-82
2022/01/22 03:21:54;;;;;;;2.55;2.35;;;;;;;;;;4836546;29;20060;-82
2022/01/22 03:27:28;;;;;;;5.50;3.15;;;;;;;;;;4797864;29;20050;-83
2022/01/22 03:29:56;;;;;;;6.07;3.60;;;;;;;;;;4815193;29;20058;-83
2022/01/22 03:32:29;;;;;;;2.22;2.13;;;;;;;;;;4832362;29;20042;-83
2022/01/22 03:35:09;;;;;;;2.75;2.55;;;;;;;;;;4817768;29;20054;-82
2022/01/22 03:37:41;;;;;;;4.20;2.67;;;;;;;;;;4831760;29;20133;-82
2022/01/22 03:40:12;;;;;;;6.20;2.45;;;;;;;;;;4832274;29;20050;-82
2022/01/22 03:42:41;;;;;;;2.63;2.42;;;;;;;;;;4832268;29;20046;-82
2022/01/22 03:45:10;;;;;;;1.90;1.73;;;;;;;;;;4812242;29;20050;-82
2022/01/22 03:47:40;;;;;;;4.80;3.28;;;;;;;;;;4825193;29;20062;-82
2022/01/22 03:50:09;;;;;;;5.75;2.95;;;;;;;;;;4824276;29;20065;-82
2022/01/22 03:52:38;;;;;;;2.72;2.10;;;;;;;;;;4820262;29;20069;-81
2022/01/22 03:55:09;;;;;;;2.55;2.42;;;;;;;;;;4823609;29;20591;-81
2022/01/22 03:57:57;;;;;;;2.90;2.08;;;;;;;;;;4862896;29;20060;-81
2022/01/22 04:00:26;;;;;;;1.75;1.65;;;;;;;;;;4836178;29;20046;-81
2022/01/22 04:03:27;;;;;;;3.38;3.08;;;;;;;;;;4819788;29;20050;-81
2022/01/22 04:09:54;;;;;;;4.47;2.90;;;;;;;;;;4801981;29;20065;-82
2022/01/22 04:13:10;;;;;;;4.38;2.65;;;;;;;;;;4811674;29;20059;-81
2022/01/22 04:16:00;;;;;;;3.00;2.80;;;;;;;;;;4831390;29;20050;-82
2022/01/22 04:26:36;;;;;;;2.60;2.40;;;;;;;;;;4819389;29;20050;-81
2022/01/22 04:29:35;;;;;;;3.33;2.22;;;;;;;;;;4817320;29;20054;-80
2022/01/22 04:32:36;;;;;;;3.10;2.90;;;;;;;;;;4831075;29;20828;-81
2022/01/22 04:35:04;;;;;;;3.60;3.08;;;;;;;;;;4820963;29;20061;-81
2022/01/22 04:37:33;;;;;;;6.00;2.67;;;;;;;;;;4818683;29;20743;-80
2022/01/22 04:40:01;;;;;;;3.22;3.03;;;;;;;;;;4815681;29;20054;-81
2022/01/22 04:42:32;;;;;;;2.17;2.00;;;;;;;;;;4823753;29;20066;-80
2022/01/22 04:45:09;;;;;;;3.00;2.70;;;;;;;;;;4835403;29;20050;-80
2022/01/22 04:55:41;;;;;;;5.22;3.47;;;;;;;;;;4817507;29;20056;-80
2022/01/22 04:58:10;;;;;;;2.55;2.38;;;;;;;;;;4832077;29;20430;-81
2022/01/22 05:00:40;;;;;;;2.58;2.40;;;;;;;;;;4809173;29;20069;-79
2022/01/22 05:03:08;;;;;;;3.17;2.97;;;;;;;;;;4835553;29;20054;-79
2022/01/22 05:05:53;;;;;;;2.78;1.98;;;;;;;;;;4846669;29;20054;-80
2022/01/22 05:08:31;;;;;;;2.63;2.45;;;;;;;;;;4821894;29;20421;-79
2022/01/22 05:11:25;;;;;;;2.78;2.58;;;;;;;;;;4815647;29;20073;-80
2022/01/22 05:13:57;;;;;;;;;;;;;;;;;;4816256;29;20109;-80
2022/01/22 05:16:25;;;;;;;2.63;2.47;;;;;;;;;;4817387;29;20830;-79
2022/01/22 05:19:02;;;;;;;2.58;2.38;;;;;;;;;;4815854;29;20070;-80
2022/01/22 05:21:36;;;;;;;4.20;3.28;;;;;;;;;;4815135;29;20080;-79
2022/01/22 05:24:08;;;;;;;2.78;2.35;;;;;;;;;;4799760;29;20050;-79
2022/01/22 05:29:23;;;;;;;3.42;3.08;;;;;;;;;;4814795;29;20565;-79
2022/01/22 05:32:25;;;;;;;5.70;3.15;;;;;;;;;;4815683;29;20050;-79
2022/01/22 05:38:01;;;;;;;2.22;2.13;;;;;;;;;;4808109;29;20051;-81
2022/01/22 05:40:30;;;;;;;2.70;2.60;;;;;;;;;;4797025;29;20046;-78
2022/01/22 05:42:58;;;;;;;2.55;2.03;;;;;;;;;;4801851;29;20502;-79
2022/01/22 05:45:26;;;;;;;2.50;2.30;;;;;;;;;;4833161;29;20061;-79
2022/01/22 05:47:55;;;;;;;2.05;1.95;;;;;;;;;;4834716;29;20428;-80
2022/01/22 05:50:34;;;;;;;3.67;3.35;;;;;;;;;;4834673;29;20050;-81
2022/01/22 06:01:56;;;;;;;2.67;2.47;;;;;;;;;;4861799;29;20050;-79
2022/01/22 06:04:30;;;;;;;3.13;2.92;;;;;;;;;;4833395;29;20045;-79
2022/01/22 06:07:08;;;;;;;4.20;3.80;;;;;;;;;;4833311;29;20207;-80
2022/01/22 06:09:39;;;;;;;3.45;2.47;;;;;;;;;;4832286;29;20527;-79
2022/01/22 06:14:42;;;;;;;2.80;2.60;;;;;;;;;;4812169;29;20050;-79
2022/01/22 06:17:11;;;;;;;6.90;2.70;;;;;;;;;;4811779;29;20528;-78
2022/01/22 06:20:07;;;;;;;4.15;3.63;;;;;;;;;;4798483;29;20070;-79
2022/01/22 06:22:39;;;;;;;2.90;2.65;;;;;;;;;;4801721;29;20524;-80
2022/01/22 06:25:14;;;;;;;4.22;2.63;;;;;;;;;;4814910;29;20417;-80
2022/01/22 06:27:42;;;;;;;4.82;3.38;;;;;;;;;;4814566;29;20054;-80
2022/01/22 06:30:11;;;;;;;3.65;3.45;;;;;;;;;;4815570;29;20066;-79
2022/01/22 06:32:47;;;;;;;3.05;2.85;;;;;;;;;;4815211;29;20050;-79
2022/01/22 06:35:15;;;;;;;4.22;3.80;;;;;;;;;;4801431;29;20063;-79
2022/01/22 06:37:44;;;;;;;3.97;3.45;;;;;;;;;;4815271;29;20066;-79
2022/01/22 06:43:17;;;;;;;3.67;3.45;;;;;;;;;;4809053;29;20046;-80
2022/01/22 06:46:08;;;;;;;2.97;2.77;;;;;;;;;;4835123;29;20066;-80
2022/01/22 06:48:46;;;;;;;4.32;3.20;;;;;;;;;;4833804;29;20291;-79
2022/01/22 06:51:27;;;;;;;7.28;4.32;;;;;;;;;;4829972;29;20130;-79
2022/01/22 06:53:58;;;;;;;3.45;3.15;;;;;;;;;;4799883;29;20046;-80
2022/01/22 06:56:29;;;;;;;4.35;4.10;;;;;;;;;;4816261;29;20057;-79
2022/01/22 06:59:08;;;;;;;4.88;3.88;;;;;;;;;;4850885;29;20575;-80
2022/01/22 07:01:37;;;;;;;3.03;2.75;;;;;;;;;;4835621;29;20061;-80
2022/01/22 07:04:15;;;;;;;4.07;3.75;;;;;;;;;;4835762;29;20046;-80
2022/01/22 07:07:13;;;;;;;4.80;4.40;;;;;;;;;;4831866;29;20062;-81
2022/01/22 07:09:46;;;;;;;4.03;3.15;;;;;;;;;;4836173;29;20061;-78
2022/01/22 07:12:14;;;;;;;4.43;3.38;;;;;;;;;;4835531;29;20500;-80
2022/01/22 07:14:45;;;;;;;5.15;3.45;;;;;;;;;;4835930;29;20385;-78
2022/01/22 07:17:16;;;;;;;5.15;4.60;;;;;;;;;;4835872;29;20053;-79
2022/01/22 07:19:51;;;;;;;5.57;4.80;;;;;;;;;;4835326;29;20062;-79
2022/01/22 07:25:20;;;;;;;3.88;3.58;;;;;;;;;;4822655;29;20051;-82
2022/01/22 07:27:51;;;;;;;6.40;3.70;;;;;;;;;;4817141;29;20065;-81
2022/01/22 07:30:19;;;;;;;4.07;3.28;;;;;;;;;;4817645;29;20061;-80
2022/01/22 07:32:47;;;;;;;5.95;5.38;;;;;;;;;;4817611;29;20058;-81
2022/01/22 07:35:19;;;;;;;4.10;3.75;;;;;;;;;;4817444;29;20058;-77
2022/01/22 07:37:59;;;;;;;4.10;3.72;;;;;;;;;;4817693;29;20069;-79
2022/01/22 07:40:28;;;;;;;5.25;4.40;;;;;;;;;;4818925;29;20062;-78
2022/01/22 07:43:00;;;;;;;4.78;4.47;;;;;;;;;;4834740;29;20771;-78
2022/01/22 07:45:47;;;;;;;4.75;4.00;;;;;;;;;;4864245;29;20042;-78
2022/01/22 07:48:18;;;;;;;;;;;;;;;;;;4835652;29;20046;-79
2022/01/22 07:51:14;;;;;;;4.80;4.32;;;;;;;;;;4836685;29;19935;-79
2022/01/22 07:53:45;;;;;;;4.97;4.43;;;;;;;;;;4835936;29;20058;-79
2022/01/22 07:56:22;;;;;;;5.93;5.00;;;;;;;;;;4835403;29;20060;-78
2022/01/22 07:58:51;;;;;;;11.52;5.10;;;;;;;;;;4835545;29;20064;-78
2022/01/22 08:01:21;;;;;;;4.75;4.45;;;;;;;;;;4835432;29;20058;-79
2022/01/22 08:04:08;;;;;;;5.97;5.43;;;;;;;;;;4835438;29;20520;-78
2022/01/22 08:07:01;;;;;;;5.95;5.45;;;;;;;;;;4837140;29;20081;-79
2022/01/22 08:09:50;;;;;;;7.70;5.78;;;;;;;;;;4863291;29;20057;-81
2022/01/22 08:12:50;;;;;;;7.47;5.50;;;;;;;;;;4807352;29;20497;-80
2022/01/22 08:15:19;;;;;;;5.55;4.32;;;;;;;;;;4825112;29;20050;-78
2022/01/22 08:17:47;;;;;;;5.05;4.63;;;;;;;;;;4817924;29;20050;-77
2022/01/22 08:20:21;;;;;;;4.63;4.07;;;;;;;;;;4807685;29;20055;-78
2022/01/22 08:22:53;;;;;;;4.25;3.90;;;;;;;;;;4826525;29;20050;-81
2022/01/22 08:25:42;;;;;;;4.25;3.95;;;;;;;;;;4816686;29;20504;-78
2022/01/22 08:36:47;;;;;;;4.15;3.88;;;;;;;;;;4822989;29;20050;-79
2022/01/22 08:39:18;;;;;;;4.30;3.88;;;;;;;;;;4811760;29;20045;-79
2022/01/22 08:41:48;;;;;;;5.30;4.90;;;;;;;;;;4822526;29;20057;-79
2022/01/22 08:44:17;;;;;;;5.95;5.10;;;;;;;;;;4829971;29;20050;-79
2022/01/22 08:46:46;;;;;;;5.40;4.90;;;;;;;;;;4834864;29;20393;-79
2022/01/22 08:49:14;;;;;;;6.30;4.82;;;;;;;;;;4829491;29;20057;-80
2022/01/22 08:51:48;;;;;;;6.03;4.15;;;;;;;;;;4815057;29;20054;-79
2022/01/22 08:54:17;;;;;;;4.97;4.50;;;;;;;;;;4815028;29;20065;-81
2022/01/22 08:56:45;;;;;;;6.00;5.50;;;;;;;;;;4840796;29;20863;-81
2022/01/22 08:59:14;;;;;;;4.93;4.35;;;;;;;;;;4838754;29;20056;-78
2022/01/22 09:01:48;;;;;;;5.75;4.90;;;;;;;;;;4822560;29;20389;-79
2022/01/22 09:04:37;;;;;;;6.68;5.10;;;;;;;;;;4814754;29;20070;-79
2022/01/22 09:07:21;;;;;;;5.10;4.70;;;;;;;;;;4815240;29;20066;-78
2022/01/22 09:09:58;;;;;;;9.00;5.72;;;;;;;;;;4815629;29;20054;-79
2022/01/22 09:12:47;;;;;;;4.35;3.95;;;;;;;;;;4828243;29;20062;-78
2022/01/22 09:15:27;;;;;;;5.28;4.57;;;;;;;;;;4814216;29;20069;-80
2022/01/22 09:17:56;;;;;;;15.70;6.38;;;;;;;;;;4815210;29;20061;-77
2022/01/22 09:20:43;;;;;;;4.18;3.80;;;;;;;;;;4831175;29;20064;-79
2022/01/22 09:23:26;;;;;;;8.20;6.15;;;;;;;;;;4822617;29;20042;-79
2022/01/22 09:26:01;;;;;;;4.82;4.32;;;;;;;;;;4820209;29;20046;-79
2022/01/22 09:28:35;;;;;;;6.55;5.95;;;;;;;;;;4841490;29;20065;-80
2022/01/22 09:31:20;;;;;;;4.35;4.03;;;;;;;;;;4835420;29;20057;-77
2022/01/22 09:34:05;;;;;;;6.80;5.90;;;;;;;;;;4845102;29;20404;-79
2022/01/22 09:37:02;;;;;;;7.03;6.38;;;;;;;;;;4833906;29;20061;-79
2022/01/22 09:39:47;;;;;;;6.55;5.40;;;;;;;;;;4823817;29;20749;-80
2022/01/22 09:42:40;;;;;;;5.55;5.07;;;;;;;;;;4810067;29;20519;-79
2022/01/22 09:45:17;;;;;;;6.15;5.55;;;;;;;;;;4815410;29;20894;-83
2022/01/22 09:48:06;;;;;;;5.40;4.90;;;;;;;;;;4832755;29;20054;-82
2022/01/22 09:50:59;;;;;;;7.32;6.18;;;;;;;;;;4826788;29;20055;-78
2022/01/22 09:53:42;;;;;;;;;;;;;;;;;;4826258;29;20413;-82
2022/01/22 09:56:40;;;;;;;8.35;5.32;;;;;;;;;;4819029;29;19935;-78
2022/01/22 09:59:45;;;;;;;4.43;4.03;;;;;;;;;;4831336;29;20054;-79
2022/01/22 10:02:16;;;;;;;5.70;5.10;;;;;;;;;;4834698;29;20061;-80
2022/01/22 10:04:45;;;;;;;5.00;4.43;;;;;;;;;;4832158;29;20583;-78
2022/01/22 10:07:29;;;;;;;6.07;5.68;;;;;;;;;;4833710;29;20286;-71
2022/01/22 10:10:11;;;;;;;3.90;3.42;;;;;;;;;;4830551;29;20057;-80
2022/01/22 10:12:44;;;;;;;5.97;4.85;;;;;;;;;;4797479;29;20527;-79
2022/01/22 10:15:39;;;;;;;5.60;4.75;;;;;;;;;;4808813;29;20058;-78
2022/01/22 10:18:13;;;;;;;5.30;4.80;;;;;;;;;;4811860;29;20069;-82
2022/01/22 10:20:42;;;;;;;5.53;5.00;;;;;;;;;;4814964;29;20054;-81
2022/01/22 10:23:19;;;;;;;5.93;5.35;;;;;;;;;;4779372;29;20492;-81
2022/01/22 10:26:00;;;;;;;8.40;6.22;;;;;;;;;;4812666;29;20054;-80
2022/01/22 10:28:38;;;;;;;6.28;5.35;;;;;;;;;;4819886;29;20061;-82
2022/01/22 10:31:19;;;;;;;7.35;5.80;;;;;;;;;;4829928;29;20055;-81
2022/01/22 10:34:13;;;;;;;5.60;5.07;;;;;;;;;;4825975;29;20053;-82
2022/01/22 10:37:29;;;;;;;6.43;5.65;;;;;;;;;;4816064;29;20876;-84
2022/01/22 10:40:30;;;;;;;6.05;5.55;;;;;;;;;;4812889;29;20586;-85
2022/01/22 10:43:43;;;;;;;6.88;5.90;;;;;;;;;;4797289;29;20058;-85
2022/01/22 10:48:54;;;;;;;6.95;5.47;;;;;;;;;;4798554;29;20059;-79
2022/01/22 10:51:22;;;;;;;7.90;5.22;;;;;;;;;;4832147;29;20050;-79
2022/01/22 10:53:51;;;;;;;6.82;5.38;;;;;;;;;;4832820;29;20054;-78
2022/01/22 10:56:22;;;;;;;5.03;4.65;;;;;;;;;;4813230;29;20047;-79
2022/01/22 10:59:05;;;;;;;9.25;7.18;;;;;;;;;;4821424;29;20432;-80
2022/01/22 11:01:52;;;;;;;4.38;3.95;;;;;;;;;;4830776;29;20484;-81
2022/01/22 11:04:22;;;;;;;6.00;5.47;;;;;;;;;;4817113;29;20435;-79
2022/01/22 11:06:50;;;;;;;5.93;5.00;;;;;;;;;;4834884;29;20054;-81
2022/01/22 11:09:38;;;;;;;4.20;3.83;;;;;;;;;;4836386;29;20076;-81
2022/01/22 11:12:07;;;;;;;5.93;5.32;;;;;;;;;;4836545;29;20042;-81
2022/01/22 11:14:37;;;;;;;7.03;4.93;;;;;;;;;;4834467;29;20056;-79
2022/01/22 11:17:06;;;;;;;4.82;3.75;;;;;;;;;;4820474;29;20046;-81
2022/01/22 11:19:35;;;;;;;5.57;4.80;;;;;;;;;;4834161;29;20058;-80
2022/01/22 11:22:14;;;;;;;6.68;5.97;;;;;;;;;;4837574;29;20064;-83
2022/01/22 11:24:50;;;;;;;10.82;3.38;;;;;;;;;;4818356;29;20054;-82
2022/01/22 11:27:19;;;;;;;7.80;4.15;;;;;;;;;;4830531;29;20420;-81
2022/01/22 11:29:51;;;;;;;7.13;4.18;;;;;;;;;;4829283;29;20050;-76
2022/01/22 11:32:21;;;;;;;5.28;4.78;;;;;;;;;;4826579;29;20054;-82
2022/01/22 11:34:51;;;;;;;6.75;6.10;;;;;;;;;;4817292;29;20058;-83
2022/01/22 11:37:23;;;;;;;13.07;5.05;;;;;;;;;;4814068;29;20531;-80
2022/01/22 11:40:11;;;;;;;7.13;5.47;;;;;;;;;;4799604;29;20065;-81
2022/01/22 11:43:39;;;;;;;6.80;5.47;;;;;;;;;;4814732;29;20491;-80
2022/01/22 11:45:51;;;;;;;7.22;5.32;;;;;;;;;;4800046;29;20054;-81
2022/01/22 11:48:26;;;;;;;5.03;4.60;;;;;;;;;;4816979;29;20055;-82
2022/01/22 11:50:56;;;;;;;6.05;4.63;;;;;;;;;;4817481;29;20061;-80
2022/01/22 11:53:24;;;;;;;4.53;4.13;;;;;;;;;;4800549;29;20057;-82
2022/01/22 11:56:10;;;;;;;6.70;5.10;;;;;;;;;;4814889;29;20054;-83
2022/01/22 11:59:00;;;;;;;7.57;4.10;;;;;;;;;;4829065;29;20066;-83
2022/01/22 12:01:40;;;;;;;5.88;5.20;;;;;;;;;;4849246;29;20093;-84
2022/01/22 12:04:12;;;;;;;5.30;3.97;;;;;;;;;;4834106;29;20381;-82
2022/01/22 12:07:00;;;;;;;4.70;4.30;;;;;;;;;;4836005;29;20061;-83
2022/01/22 12:10:05;;;;;;;5.50;4.90;;;;;;;;;;4833509;29;20071;-83
2022/01/22 12:15:25;;;;;;;13.48;6.03;;;;;;;;;;4835373;29;20068;-82
2022/01/22 12:23:09;;;;;;;6.53;5.07;;;;;;;;;;4817139;29;20505;-82
2022/01/22 12:25:40;;;;;;;4.68;4.22;;;;;;;;;;4816501;29;20077;-82
2022/01/22 12:28:09;;;;;;;3.80;3.42;;;;;;;;;;4798219;29;20497;-83
2022/01/22 12:30:44;;;;;;;4.40;4.05;;;;;;;;;;4799416;29;20061;-82
2022/01/22 12:33:15;;;;;;;4.47;3.90;;;;;;;;;;4798656;29;20062;-83
2022/01/22 12:35:44;;;;;;;6.05;5.10;;;;;;;;;;4798887;29;20429;-85
2022/01/22 12:38:32;;;;;;;6.30;4.88;;;;;;;;;;4798624;29;20054;-86
2022/01/22 12:41:15;;;;;;;4.38;3.97;;;;;;;;;;4812137;29;20050;-84
2022/01/22 12:43:45;;;;;;;5.03;4.40;;;;;;;;;;4819568;29;20057;-85
2022/01/22 12:46:14;;;;;;;6.82;5.35;;;;;;;;;;4835120;29;20404;-83
2022/01/22 12:48:43;;;;;;;6.43;4.65;;;;;;;;;;4833493;29;20066;-85
2022/01/22 12:51:11;;;;;;;13.27;6.22;;;;;;;;;;4816594;29;20058;-85
2022/01/22 12:53:47;;;;;;;4.53;4.10;;;;;;;;;;4817216;29;20050;-87
2022/01/22 12:56:49;;;;;;;3.63;3.40;;;;;;;;;;4822933;29;20053;-84
2022/01/22 12:59:13;;;;;;;8.57;4.70;;;;;;;;;;4824246;29;20077;-85
2022/01/22 13:01:45;;;;;;;8.02;6.32;;;;;;;;;;4816830;29;20420;-87
2022/01/22 13:04:13;;;;;;;5.13;4.70;;;;;;;;;;4815167;29;20424;-85
2022/01/22 13:06:56;;;;;;;6.38;5.10;;;;;;;;;;4815732;29;20884;-85
2022/01/22 13:09:49;;;;;;;7.72;5.15;;;;;;;;;;4816237;29;20062;-83
2022/01/22 13:12:18;;;;;;;6.50;4.45;;;;;;;;;;4814303;29;20054;-83
2022/01/22 13:14:46;;;;;;;7.40;3.50;;;;;;;;;;4816786;29;20062;-84
2022/01/22 13:17:16;;;;;;;13.23;6.65;;;;;;;;;;4829646;29;20541;-84
2022/01/22 13:19:51;;;;;;;7.05;5.47;;;;;;;;;;4816244;29;20058;-84
2022/01/22 13:22:19;;;;;;;5.40;4.18;;;;;;;;;;4816525;29;20050;-83
2022/01/22 13:24:48;;;;;;;6.95;5.25;;;;;;;;;;4811943;29;20046;-85
2022/01/22 13:27:19;;;;;;;6.50;5.55;;;;;;;;;;4813711;29;20054;-85
2022/01/22 13:29:54;;;;;;;6.72;6.20;;;;;;;;;;4830785;29;20045;-83
2022/01/22 13:35:46;;;;;;;5.20;4.80;;;;;;;;;;4835095;29;20507;-85
2022/01/22 13:49:12;;;;;;;6.07;5.53;;;;;;;;;;4834381;29;20050;-83
2022/01/22 13:51:40;;;;;;;6.07;5.55;;;;;;;;;;4832724;29;20061;-84
2022/01/22 13:54:09;;;;;;;7.07;5.20;;;;;;;;;;4834409;29;20057;-82
2022/01/22 13:56:55;;;;;;;5.47;5.03;;;;;;;;;;4832498;29;20050;-81
2022/01/22 13:59:31;;;;;;;9.93;5.38;;;;;;;;;;4832517;29;20082;-82
2022/01/22 14:04:52;;;;;;;5.38;4.80;;;;;;;;;;4828854;29;20057;-82
2022/01/22 14:07:37;;;;;;;6.70;5.32;;;;;;;;;;4830386;29;20411;-83
2022/01/22 14:10:09;;;;;;;6.55;5.00;;;;;;;;;;4826035;29;20495;-81
2022/01/22 14:12:46;;;;;;;5.95;4.30;;;;;;;;;;4810332;29;20046;-82
2022/01/22 14:15:27;;;;;;;7.72;6.28;;;;;;;;;;4821429;29;20057;-82
2022/01/22 14:20:51;;;;;;;4.47;4.07;;;;;;;;;;4828076;29;20062;-83
2022/01/22 14:23:25;;;;;;;5.72;5.10;;;;;;;;;;4834140;29;20053;-81
2022/01/22 14:26:02;;;;;;;5.95;5.07;;;;;;;;;;4834359;29;20053;-82
2022/01/22 14:28:40;;;;;;;5.20;4.78;;;;;;;;;;4831323;29;20054;-82
2022/01/22 14:31:26;;;;;;;5.53;3.97;;;;;;;;;;4834967;29;20049;-81
2022/01/22 14:34:03;;;;;;;4.35;3.95;;;;;;;;;;4859546;29;20052;-81
2022/01/22 14:36:43;;;;;;;9.73;8.68;;;;;;;;;;4833507;29;20042;-83
2022/01/22 14:44:51;;;;;;;5.32;4.78;;;;;;;;;;4818027;29;20415;-80
2022/01/22 14:47:19;;;;;;;5.70;5.13;;;;;;;;;;4822836;29;20473;-80
2022/01/22 14:50:08;;;;;;;4.97;4.43;;;;;;;;;;4820986;29;20061;-78
2022/01/22 14:53:10;;;;;;;7.22;5.45;;;;;;;;;;4832979;29;20061;-79
2022/01/22 14:55:58;;;;;;;9.70;7.30;;;;;;;;;;4820046;29;20042;-79
2022/01/22 14:58:25;;;;;;;6.65;5.35;;;;;;;;;;4828243;29;20415;-79
2022/01/22 15:00:54;;;;;;;7.07;5.32;;;;;;;;;;4832946;29;20049;-79
2022/01/22 15:03:23;;;;;;;8.82;5.88;;;;;;;;;;4838645;29;20054;-79
2022/01/22 15:05:54;;;;;;;7.10;6.43;;;;;;;;;;4826100;29;20054;-79
2022/01/22 15:08:22;;;;;;;4.60;4.03;;;;;;;;;;4819688;29;20046;-79
2022/01/22 15:10:50;;;;;;;5.07;4.22;;;;;;;;;;4820013;29;20058;-78
2022/01/22 15:13:18;;;;;;;8.80;7.57;;;;;;;;;;4818281;29;20054;-79
2022/01/22 15:15:48;;;;;;;6.28;5.43;;;;;;;;;;4820624;29;20050;-79
2022/01/22 15:18:39;;;;;;;7.03;6.35;;;;;;;;;;4820151;29;20055;-78
2022/01/22 15:21:04;;;;;;;5.35;4.78;;;;;;;;;;4820181;29;20051;-79
2022/01/22 15:23:32;;;;;;;6.75;5.13;;;;;;;;;;4833907;29;20058;-79
2022/01/22 15:26:00;;;;;;;7.40;4.80;;;;;;;;;;4822139;29;20054;-79
2022/01/22 15:28:44;;;;;;;5.82;5.32;;;;;;;;;;4819723;29;20054;-79
2022/01/22 15:31:28;;;;;;;7.72;6.68;;;;;;;;;;4819969;29;20477;-79
2022/01/22 15:34:37;;;;;;;8.48;5.78;;;;;;;;;;4820260;29;20042;-79
2022/01/22 15:37:08;;;;;;;7.27;5.03;;;;;;;;;;4820368;29;20055;-79
2022/01/22 15:39:37;;;;;;;9.73;3.88;;;;;;;;;;4820227;29;20538;-79
2022/01/22 15:42:05;;;;;;;6.35;4.97;;;;;;;;;;4819748;29;20069;-79
2022/01/22 15:44:33;;;;;;;6.72;5.25;;;;;;;;;;4833681;29;20522;-79
2022/01/22 15:47:01;;;;;;;13.30;9.70;;;;;;;;;;4839557;29;20058;-80
2022/01/22 15:49:32;;;;;;;6.45;5.85;;;;;;;;;;4840300;29;20049;-80
2022/01/22 15:52:03;;;;;;;5.93;4.68;;;;;;;;;;4839559;29;20057;-80
2022/01/22 15:54:32;;;;;;;7.00;6.15;;;;;;;;;;4839393;29;20046;-79
2022/01/22 15:57:04;;;;;;;6.75;6.07;;;;;;;;;;4838888;29;20054;-80
2022/01/22 15:59:32;;;;;;;7.03;6.25;;;;;;;;;;4841508;29;20064;-81
2022/01/22 16:02:00;;;;;;;7.25;6.65;;;;;;;;;;4841772;29;20472;-82
2022/01/22 16:04:33;;;;;;;9.73;8.33;;;;;;;;;;4831613;29;20069;-81
2022/01/22 16:07:20;;;;;;;5.20;4.65;;;;;;;;;;4823145;29;20057;-81
2022/01/22 16:10:07;;;;;;;7.63;6.90;;;;;;;;;;4844849;29;20441;-80
2022/01/22 16:12:35;;;;;;;7.50;5.72;;;;;;;;;;4833359;29;20061;-80
2022/01/22 16:15:03;;;;;;;11.82;8.25;;;;;;;;;;4841793;29;20054;-81
2022/01/22 16:17:33;;;;;;;8.97;6.03;;;;;;;;;;4836833;29;20070;-81
2022/01/22 16:20:02;;;;;;;8.32;6.68;;;;;;;;;;4833768;29;20065;-81
2022/01/22 16:22:30;;;;;;;8.65;7.85;;;;;;;;;;4820854;29;20393;-82
2022/01/22 16:25:00;;;;;;;9.35;8.38;;;;;;;;;;4821518;29;20580;-82
2022/01/22 16:27:29;;;;;;;10.10;6.32;;;;;;;;;;4832674;29;20386;-82
2022/01/22 16:29:58;;;;;;;7.75;6.95;;;;;;;;;;4833077;29;20580;-81
2022/01/22 16:32:27;;;;;;;8.63;7.82;;;;;;;;;;4819186;29;20628;-81
2022/01/22 16:34:56;;;;;;;6.93;6.22;;;;;;;;;;4827920;29;20487;-82
2022/01/22 16:37:25;;;;;;;7.32;5.70;;;;;;;;;;4819279;29;20524;-83
2022/01/22 16:39:55;;;;;;;10.55;7.95;;;;;;;;;;4812232;29;20064;-82
2022/01/22 16:42:26;;;;;;;9.27;6.03;;;;;;;;;;4822005;29;20074;-84
2022/01/22 16:53:39;;;;;;;5.78;5.05;;;;;;;;;;4831031;29;20073;-82
2022/01/22 16:55:50;;;;;;;10.05;6.65;;;;;;;;;;4833085;29;20054;-81
2022/01/22 16:58:18;;;;;;;5.60;5.07;;;;;;;;;;4817416;29;20050;-85
2022/01/22 17:00:57;;;;;;;6.70;4.80;;;;;;;;;;4830388;29;20050;-80
2022/01/22 17:03:30;;;;;;;8.15;6.97;;;;;;;;;;4830457;29;20252;-79
2022/01/22 17:06:03;;;;;;;6.97;5.20;;;;;;;;;;4819710;29;20404;-79
2022/01/22 17:08:36;;;;;;;8.07;7.30;;;;;;;;;;4817977;29;20059;-82
2022/01/22 17:11:08;;;;;;;6.97;5.70;;;;;;;;;;4829060;29;20388;-84
2022/01/22 17:16:25;;;;;;;9.27;6.50;;;;;;;;;;4826696;29;20069;-83
2022/01/22 17:18:53;;;;;;;8.18;7.25;;;;;;;;;;4820335;29;20058;-84
2022/01/22 17:21:23;;;;;;;6.10;5.55;;;;;;;;;;4814330;29;20062;-82
2022/01/22 17:23:53;;;;;;;8.10;6.32;;;;;;;;;;4822738;29;20049;-84
2022/01/22 17:26:25;;;;;;;7.63;6.78;;;;;;;;;;4814080;29;20050;-84
2022/01/22 17:28:54;;;;;;;8.25;7.43;;;;;;;;;;4815679;29;20067;-83
2022/01/22 17:31:23;;;;;;;9.98;6.15;;;;;;;;;;4811745;29;20046;-84
2022/01/22 17:33:52;;;;;;;8.35;6.75;;;;;;;;;;4815605;29;20066;-79
2022/01/22 17:36:20;;;;;;;9.90;6.78;;;;;;;;;;4816582;29;20706;-84
2022/01/22 17:38:49;;;;;;;8.98;6.10;;;;;;;;;;4799599;29;20069;-82
2022/01/22 17:41:18;;;;;;;6.32;5.80;;;;;;;;;;4815555;29;20051;-83
2022/01/22 17:43:48;;;;;;;8.80;6.78;;;;;;;;;;4809762;29;20069;-86